MOL Partner — 3EBZ5 — position and weather

sailwx.info

Track history (hours):
 
Tides and Currents Weather Stations Pressure Air Temp Water Temp Dewpoint Dewpoint Depression Visibility Wind Speed Wind Dir Waves Ship Positions

MOL Partner

Last reported at 2014-Aug-16 03:24 UTC. Time now 2014-Aug-30 02:27 UTC.
Position N 30°27' E 032°21'.
Warning: this ship's position is 13 days out of date.

Length 293 m; draft 12.1 m.

Type: Ship (hazmat cat D). MMSI: 371303000.

Date/timePositionNaut miles runAvg speedWind from/ knotsBaromVisibWave heightAir tempDewpointWater temp
2014-Aug-16 03:24N 30°27' E 032°21'8 9.6
2014-Aug-16 02:33N 30°35' E 032°18'8 8.4
2014-Aug-16 01:33N 30°43' E 032°21'9 9.2
2014-Aug-16 00:32N 30°52' E 032°19'9 9.5
2014-Aug-15 23:33N 31°01' E 032°19'9 9.5
2014-Aug-15 22:33N 31°11' E 032°20'8 8.2
2014-Aug-15 21:33N 31°19' E 032°22'7 6.5
2014-Aug-15 20:33N 31°25' E 032°18'0 0.2
2014-Aug-15 19:32N 31°25' E 032°19'0 0.0
2014-Aug-15 18:32N 31°25' E 032°19'0 0.0
2014-Aug-15 17:32N 31°25' E 032°19'0 0.0
2014-Aug-15 16:29N 31°25' E 032°19'0 0.0
2014-Aug-15 15:32N 31°25' E 032°19'0 0.2
2014-Aug-15 14:30N 31°25' E 032°19'6 6.6
2014-Aug-15 13:33N 31°30' E 032°15'1110.7
2014-Aug-15 12:33N 31°38' E 032°06'1110.7
2014-Aug-15 11:33N 31°45' E 031°57'1110.9
2014-Aug-15 10:32N 31°52' E 031°47'1212.1
2014-Aug-15 09:33N 31°56' E 031°33'1313.0
2014-Aug-15 08:33N 31°60' E 031°19'1312.7
2014-Aug-15 07:33N 32°04' E 031°05'1312.9
2014-Aug-15 06:33N 32°08' E 030°50'1313.1
2014-Aug-15 05:33N 32°11' E 030°35'1413.9
2014-Aug-15 04:33N 32°16' E 030°20'1414.4
2014-Aug-15 03:33N 32°20' E 030°03'1414.0
2014-Aug-15 02:33N 32°23' E 029°48'1413.6
2014-Aug-15 01:33N 32°28' E 029°32'1313.0
2014-Aug-15 00:33N 32°32' E 029°18'1312.9
2014-Aug-14 23:33N 32°36' E 029°03'1312.9
2014-Aug-14 22:33N 32°40' E 028°48'1313.4
2014-Aug-14 21:33N 32°44' E 028°33'1413.6
2014-Aug-14 20:33N 32°48' E 028°18'1413.7
2014-Aug-14 19:33N 32°52' E 028°02'1413.8
2014-Aug-14 18:33N 32°56' E 027°47'2121.0
2014-Aug-14 17:34N 33°02' E 027°23'1515.3
2014-Aug-14 16:34N 33°07' E 027°05'1514.7
2014-Aug-14 15:34N 33°11' E 026°48'1515.1
2014-Aug-14 14:34N 33°16' E 026°31'1514.9
2014-Aug-14 13:33N 33°20' E 026°14'1414.4
2014-Aug-14 12:33N 33°25' E 025°58'1714.2
2014-Aug-14 11:23N 33°30' E 025°39'1614.3
2014-Aug-14 10:18N 33°34' E 025°21'61914.7
2014-Aug-12 16:11N 36°39' E 013°19'2314.0
2014-Aug-12 14:32N 36°46' E 012°52'1414.0
2014-Aug-12 13:33N 36°50' E 012°36'1713.8
2014-Aug-12 12:18N 36°55' E 012°15'2514.2
2014-Aug-12 10:33N 37°05' E 011°47'1414.2
2014-Aug-12 09:34N 37°12' E 011°31'1414.4
2014-Aug-12 08:33N 37°19' E 011°15'1414.1
2014-Aug-12 07:34N 37°27' E 011°00'1918.9
2014-Aug-12 06:33N 37°30' E 010°37'1515.3
2014-Aug-12 05:34N 37°33' E 010°18'1514.6
2014-Aug-12 04:31N 37°34' E 009°59'1414.5
2014-Aug-12 03:33N 37°33' E 009°41'1414.3
2014-Aug-12 02:33N 37°27' E 009°25'1413.8
2014-Aug-12 01:33N 37°21' E 009°09'1413.8
2014-Aug-12 00:33N 37°18' E 008°52'1414.1
2014-Aug-11 23:33N 37°19' E 008°34'1413.8
2014-Aug-11 22:33N 37°20' E 008°17'1414.0
2014-Aug-11 21:33N 37°22' E 007°59'1413.9
2014-Aug-11 20:32N 37°22' E 007°41'2215.5
2014-Aug-11 19:06N 37°24' E 007°14'1421.5
2014-Aug-11 18:27N 37°24' E 006°56'1315.2
2014-Aug-11 17:34N 37°22' E 006°39'1614.2
2014-Aug-11 16:27N 37°19' E 006°20'1213.8
2014-Aug-11 15:33N 37°18' E 006°04'1414.1
2014-Aug-11 14:33N 37°16' E 005°47'1514.9
2014-Aug-11 13:33N 37°13' E 005°28'1414.2
2014-Aug-11 12:33N 37°11' E 005°11'1414.3
2014-Aug-11 11:33N 37°09' E 004°53'1514.6
2014-Aug-11 10:33N 37°07' E 004°35'1414.5
2014-Aug-11 09:33N 37°04' E 004°17'1414.2
2014-Aug-11 08:33N 37°02' E 003°59'1414.3
2014-Aug-11 07:33N 36°60' E 003°42'2020.4
2014-Aug-11 06:34N 36°57' E 003°17'1616.3
2014-Aug-11 05:33N 36°55' E 002°56'1414.5
2014-Aug-11 04:33N 36°52' E 002°38'1413.8
2014-Aug-11 03:33N 36°50' E 002°22'1313.2
2014-Aug-11 02:33N 36°48' E 002°05'1313.3
2014-Aug-11 01:33N 36°45' E 001°49'1414.4
2014-Aug-11 00:34N 36°43' E 001°31'1514.7
2014-Aug-10 23:33N 36°41' E 001°13'1414.5
2014-Aug-10 22:33N 36°39' E 000°55'1414.2
2014-Aug-10 21:34N 36°36' E 000°38'1414.3
2014-Aug-10 20:33N 36°34' E 000°20'1514.9
2014-Aug-10 19:34N 36°32' E 000°02'2020.3
2014-Aug-10 18:33N 36°29' W 000°23'1615.5
2014-Aug-10 17:33N 36°27' W 000°43'1414.4
2014-Aug-10 16:33N 36°25' W 001°00'1513.9
2014-Aug-10 15:29N 36°24' W 001°19'1313.7
2014-Aug-10 14:33N 36°22' W 001°34'1413.9
2014-Aug-10 13:33N 36°20' W 001°52'1414.1
2014-Aug-10 12:33N 36°19' W 002°09'1513.8
2014-Aug-10 11:29N 36°17' W 002°27'3013.7
2014-Aug-10 09:18N 36°13' W 003°04'111 6.9
2014-Aug-09 17:03N 36°04' W 005°22'2 3.6
2014-Aug-09 16:33N 36°04' W 005°19'4 0.3
2014-Aug-09 03:22N 36°01' W 005°17'1112.6
2014-Aug-09 02:30N 35°57' W 005°30'10412.6
2014-Aug-08 18:12N 35°54' W 007°38'2012.2
2014-Aug-08 16:33N 35°59' W 008°02'5312.4
2014-Aug-08 12:19N 36°18' W 009°03'1112.6
2014-Aug-08 11:29N 36°22' W 009°15'4112.5
2014-Aug-08 08:12N 36°37' W 010°03'1417.6
2014-Aug-08 07:24N 36°41' W 010°20'74518.1
2014-Aug-06 14:19N 39°46' W 025°39'12317.7
2014-Aug-06 07:24N 40°09' W 028°16'1517.1
2014-Aug-06 06:33N 40°12' W 028°35'1717.1
2014-Aug-06 05:33N 40°15' W 028°57'1917.2
2014-Aug-06 04:28N 40°19' W 029°21'1717.3
2014-Aug-06 03:30N 40°22' W 029°42'  
Track history (hours):
 
Tides and Currents Weather Stations Pressure Air Temp Water Temp Dewpoint Dewpoint Depression Visibility Wind Speed Wind Dir Waves Ship Positions

MOL Partner

Last reported at 2014-Aug-16 03:24 UTC. Time now 2014-Aug-30 02:27 UTC.
Position N 30°27' E 032°21'.
Warning: this ship's position is 13 days out of date.

Length 293 m; draft 12.1 m.

Type: Ship (hazmat cat D). MMSI: 371303000.

Date/timePositionNaut miles runAvg speedWind from/ knotsBaromVisibWave heightAir tempDewpointWater temp
2014-Aug-16 03:24N 30°27' E 032°21'8 9.6
2014-Aug-16 02:33N 30°35' E 032°18'8 8.4
2014-Aug-16 01:33N 30°43' E 032°21'9 9.2
2014-Aug-16 00:32N 30°52' E 032°19'9 9.5
2014-Aug-15 23:33N 31°01' E 032°19'9 9.5
2014-Aug-15 22:33N 31°11' E 032°20'8 8.2
2014-Aug-15 21:33N 31°19' E 032°22'7 6.5
2014-Aug-15 20:33N 31°25' E 032°18'0 0.2
2014-Aug-15 19:32N 31°25' E 032°19'0 0.0
2014-Aug-15 18:32N 31°25' E 032°19'0 0.0
2014-Aug-15 17:32N 31°25' E 032°19'0 0.0
2014-Aug-15 16:29N 31°25' E 032°19'0 0.0
2014-Aug-15 15:32N 31°25' E 032°19'0 0.2
2014-Aug-15 14:30N 31°25' E 032°19'6 6.6
2014-Aug-15 13:33N 31°30' E 032°15'1110.7
2014-Aug-15 12:33N 31°38' E 032°06'1110.7
2014-Aug-15 11:33N 31°45' E 031°57'1110.9
2014-Aug-15 10:32N 31°52' E 031°47'1212.1
2014-Aug-15 09:33N 31°56' E 031°33'1313.0
2014-Aug-15 08:33N 31°60' E 031°19'1312.7
2014-Aug-15 07:33N 32°04' E 031°05'1312.9
2014-Aug-15 06:33N 32°08' E 030°50'1313.1
2014-Aug-15 05:33N 32°11' E 030°35'1413.9
2014-Aug-15 04:33N 32°16' E 030°20'1414.4
2014-Aug-15 03:33N 32°20' E 030°03'1414.0
2014-Aug-15 02:33N 32°23' E 029°48'1413.6
2014-Aug-15 01:33N 32°28' E 029°32'1313.0
2014-Aug-15 00:33N 32°32' E 029°18'1312.9
2014-Aug-14 23:33N 32°36' E 029°03'1312.9
2014-Aug-14 22:33N 32°40' E 028°48'1313.4
2014-Aug-14 21:33N 32°44' E 028°33'1413.6
2014-Aug-14 20:33N 32°48' E 028°18'1413.7
2014-Aug-14 19:33N 32°52' E 028°02'1413.8
2014-Aug-14 18:33N 32°56' E 027°47'2121.0
2014-Aug-14 17:34N 33°02' E 027°23'1515.3
2014-Aug-14 16:34N 33°07' E 027°05'1514.7
2014-Aug-14 15:34N 33°11' E 026°48'1515.1
2014-Aug-14 14:34N 33°16' E 026°31'1514.9
2014-Aug-14 13:33N 33°20' E 026°14'1414.4
2014-Aug-14 12:33N 33°25' E 025°58'1714.2
2014-Aug-14 11:23N 33°30' E 025°39'1614.3
2014-Aug-14 10:18N 33°34' E 025°21'61914.7
2014-Aug-12 16:11N 36°39' E 013°19'2314.0
2014-Aug-12 14:32N 36°46' E 012°52'1414.0
2014-Aug-12 13:33N 36°50' E 012°36'1713.8
2014-Aug-12 12:18N 36°55' E 012°15'2514.2
2014-Aug-12 10:33N 37°05' E 011°47'1414.2
2014-Aug-12 09:34N 37°12' E 011°31'1414.4
2014-Aug-12 08:33N 37°19' E 011°15'1414.1
2014-Aug-12 07:34N 37°27' E 011°00'1918.9
2014-Aug-12 06:33N 37°30' E 010°37'1515.3
2014-Aug-12 05:34N 37°33' E 010°18'1514.6
2014-Aug-12 04:31N 37°34' E 009°59'1414.5
2014-Aug-12 03:33N 37°33' E 009°41'1414.3
2014-Aug-12 02:33N 37°27' E 009°25'1413.8
2014-Aug-12 01:33N 37°21' E 009°09'1413.8
2014-Aug-12 00:33N 37°18' E 008°52'1414.1
2014-Aug-11 23:33N 37°19' E 008°34'1413.8
2014-Aug-11 22:33N 37°20' E 008°17'1414.0
2014-Aug-11 21:33N 37°22' E 007°59'1413.9
2014-Aug-11 20:32N 37°22' E 007°41'2215.5
2014-Aug-11 19:06N 37°24' E 007°14'1421.5
2014-Aug-11 18:27N 37°24' E 006°56'1315.2
2014-Aug-11 17:34N 37°22' E 006°39'1614.2
2014-Aug-11 16:27N 37°19' E 006°20'1213.8
2014-Aug-11 15:33N 37°18' E 006°04'1414.1
2014-Aug-11 14:33N 37°16' E 005°47'1514.9
2014-Aug-11 13:33N 37°13' E 005°28'1414.2
2014-Aug-11 12:33N 37°11' E 005°11'1414.3
2014-Aug-11 11:33N 37°09' E 004°53'1514.6
2014-Aug-11 10:33N 37°07' E 004°35'1414.5
2014-Aug-11 09:33N 37°04' E 004°17'1414.2
2014-Aug-11 08:33N 37°02' E 003°59'1414.3
2014-Aug-11 07:33N 36°60' E 003°42'2020.4
2014-Aug-11 06:34N 36°57' E 003°17'1616.3
2014-Aug-11 05:33N 36°55' E 002°56'1414.5
2014-Aug-11 04:33N 36°52' E 002°38'1413.8
2014-Aug-11 03:33N 36°50' E 002°22'1313.2
2014-Aug-11 02:33N 36°48' E 002°05'1313.3
2014-Aug-11 01:33N 36°45' E 001°49'1414.4
2014-Aug-11 00:34N 36°43' E 001°31'1514.7
2014-Aug-10 23:33N 36°41' E 001°13'1414.5
2014-Aug-10 22:33N 36°39' E 000°55'1414.2
2014-Aug-10 21:34N 36°36' E 000°38'1414.3
2014-Aug-10 20:33N 36°34' E 000°20'1514.9
2014-Aug-10 19:34N 36°32' E 000°02'2020.3
2014-Aug-10 18:33N 36°29' W 000°23'1615.5
2014-Aug-10 17:33N 36°27' W 000°43'1414.4
2014-Aug-10 16:33N 36°25' W 001°00'1513.9
2014-Aug-10 15:29N 36°24' W 001°19'1313.7
2014-Aug-10 14:33N 36°22' W 001°34'1413.9
2014-Aug-10 13:33N 36°20' W 001°52'1414.1
2014-Aug-10 12:33N 36°19' W 002°09'1513.8
2014-Aug-10 11:29N 36°17' W 002°27'3013.7
2014-Aug-10 09:18N 36°13' W 003°04'111 6.9
2014-Aug-09 17:03N 36°04' W 005°22'2 3.6
2014-Aug-09 16:33N 36°04' W 005°19'4 0.3
2014-Aug-09 03:22N 36°01' W 005°17'1112.6
2014-Aug-09 02:30N 35°57' W 005°30'10412.6
2014-Aug-08 18:12N 35°54' W 007°38'2012.2
2014-Aug-08 16:33N 35°59' W 008°02'5312.4
2014-Aug-08 12:19N 36°18' W 009°03'1112.6
2014-Aug-08 11:29N 36°22' W 009°15'4112.5
2014-Aug-08 08:12N 36°37' W 010°03'1417.6
2014-Aug-08 07:24N 36°41' W 010°20'74518.1
2014-Aug-06 14:19N 39°46' W 025°39'12317.7
2014-Aug-06 07:24N 40°09' W 028°16'1517.1
2014-Aug-06 06:33N 40°12' W 028°35'1717.1
2014-Aug-06 05:33N 40°15' W 028°57'1917.2
2014-Aug-06 04:28N 40°19' W 029°21'1717.3
2014-Aug-06 03:30N 40°22' W 029°42'  

Dump ship's entire track history